Time;durP1;ratioP1;P1;durP2;ratioP2;P2;SDS_P1;SDS_P2;PMS_P1;PMS_P2;Temp;Humidity;BMP_temperature;BMP_pressure;BME280_temperature;BME280_humidity;BME280_pressure;Samples;Min_cycle;Max_cycle;Signal;HPM_P1;HPM_P2
2022/03/15 00:01:13;;;;;;;10.45;3.25;;;4.50;99.90;;;;;;5031589;28;20051;-80
2022/03/15 00:03:38;;;;;;;13.27;3.60;;;4.40;99.90;;;;;;5064743;28;20487;-80
2022/03/15 00:06:04;;;;;;;17.50;4.68;;;4.40;99.90;;;;;;5064505;28;20051;-80
2022/03/15 00:08:30;;;;;;;17.30;4.45;;;4.40;99.90;;;;;;5065061;28;20040;-80
2022/03/15 00:10:58;;;;;;;20.48;4.13;;;3.40;99.90;;;;;;5048078;28;20408;-80
2022/03/15 00:13:28;;;;;;;10.52;4.15;;;4.30;99.90;;;;;;5064825;28;20123;-80
2022/03/15 00:15:56;;;;;;;16.95;4.53;;;4.30;99.90;;;;;;5048298;28;20404;-80
2022/03/15 00:18:21;;;;;;;16.10;4.82;;;4.30;99.90;;;;;;5064943;28;20088;-80
2022/03/15 00:20:47;;;;;;;15.02;5.03;;;4.20;99.90;;;;;;5054461;28;20509;-81
2022/03/15 00:23:13;;;;;;;17.15;4.68;;;4.20;99.90;;;;;;5070826;28;20405;-80
2022/03/15 00:25:39;;;;;;;13.55;5.00;;;4.10;99.90;;;;;;5072492;28;20098;-81
2022/03/15 00:28:04;;;;;;;15.93;4.43;;;4.10;99.90;;;;;;5054514;28;20059;-80
2022/03/15 00:30:30;;;;;;;20.88;4.90;;;4.10;99.90;;;;;;5071327;28;20037;-80
2022/03/15 00:32:56;;;;;;;14.25;3.90;;;4.00;99.90;;;;;;5072416;28;20365;-81
2022/03/15 00:35:24;;;;;;;12.30;4.60;;;5.10;99.90;;;;;;5072621;28;20097;-80
2022/03/15 00:37:52;;;;;;;12.32;4.47;;;4.00;99.90;;;;;;5072213;28;20044;-80
2022/03/15 00:40:19;;;;;;;17.08;5.63;;;3.90;99.90;;;;;;5071985;28;20082;-80
2022/03/15 00:42:47;;;;;;;11.07;3.92;;;3.90;99.90;;;;;;5071396;28;20467;-80
2022/03/15 00:45:13;;;;;;;13.98;4.70;;;3.80;99.90;;;;;;5072051;28;20048;-80
2022/03/15 00:47:39;;;;;;;19.75;4.50;;;5.00;99.90;;;;;;5071333;28;20039;-80
2022/03/15 00:50:05;;;;;;;15.80;4.68;;;3.70;99.90;;;;;;5070580;28;20070;-80
2022/03/15 00:52:30;;;;;;;13.35;4.80;;;3.60;99.90;;;;;;5071577;28;20066;-80
2022/03/15 00:54:56;;;;;;;12.77;4.03;;;3.60;99.90;;;;;;5054648;28;20549;-80
2022/03/15 00:57:22;;;;;;;21.33;4.93;;;3.60;99.90;;;;;;5054183;28;20090;-80
2022/03/15 00:59:47;;;;;;;21.77;5.28;;;3.60;99.90;;;;;;5037570;28;20045;-80
2022/03/15 01:02:13;;;;;;;17.50;4.45;;;3.50;99.90;;;;;;5072162;28;20068;-80
2022/03/15 01:04:39;;;;;;;13.02;4.32;;;3.50;99.90;;;;;;5054805;28;20067;-80
2022/03/15 01:07:05;;;;;;;19.33;5.35;;;3.50;99.90;;;;;;5072109;28;20045;-80
2022/03/15 01:09:30;;;;;;;12.75;5.10;;;3.50;99.90;;;;;;5070954;28;20487;-79
2022/03/15 01:11:57;;;;;;;9.40;4.60;;;3.50;99.90;;;;;;5070642;28;20044;-80
2022/03/15 01:14:25;;;;;;;14.48;4.97;;;3.50;99.90;;;;;;5071089;28;20045;-80
2022/03/15 01:16:51;;;;;;;10.98;4.38;;;3.70;99.90;;;;;;5071426;28;20051;-80
2022/03/15 01:19:16;;;;;;;18.15;5.13;;;3.50;99.90;;;;;;5072426;28;20075;-81
2022/03/15 01:21:42;;;;;;;17.65;4.97;;;3.50;99.90;;;;;;5038101;28;20048;-80
2022/03/15 01:24:09;;;;;;;13.50;5.05;;;3.50;99.90;;;;;;5070503;28;20487;-80
2022/03/15 01:26:37;;;;;;;19.45;6.32;;;3.50;99.90;;;;;;5072460;28;20045;-80
2022/03/15 01:29:03;;;;;;;18.80;5.45;;;3.50;99.90;;;;;;5054239;28;20044;-81
2022/03/15 01:31:29;;;;;;;13.20;5.00;;;3.60;99.90;;;;;;5068571;28;20051;-80
2022/03/15 01:33:55;;;;;;;16.02;5.18;;;3.50;99.90;;;;;;5067217;28;20049;-80
2022/03/15 01:36:21;;;;;;;16.52;5.55;;;3.50;99.90;;;;;;5068159;28;20471;-81
2022/03/15 01:38:47;;;;;;;18.15;5.60;;;3.50;99.90;;;;;;5067627;28;20040;-81
2022/03/15 01:41:13;;;;;;;20.50;5.93;;;3.50;99.90;;;;;;5050786;28;20523;-81
2022/03/15 01:43:40;;;;;;;17.65;5.32;;;3.50;99.90;;;;;;5067450;28;20091;-81
2022/03/15 01:46:09;;;;;;;14.07;5.53;;;3.50;99.90;;;;;;5067226;28;20044;-80
2022/03/15 01:48:35;;;;;;;14.45;5.53;;;3.50;99.90;;;;;;5066891;28;20090;-80
2022/03/15 01:51:02;;;;;;;24.95;6.15;;;3.50;99.90;;;;;;5066927;28;20041;-81
2022/03/15 01:53:28;;;;;;;23.08;6.53;;;3.50;99.90;;;;;;5049841;28;20135;-80
2022/03/15 01:55:54;;;;;;;11.52;5.15;;;3.40;99.90;;;;;;5050695;28;20044;-80
2022/03/15 01:58:21;;;;;;;13.43;5.55;;;3.40;99.90;;;;;;5066614;28;20577;-81
2022/03/15 02:00:48;;;;;;;22.52;6.03;;;3.40;99.90;;;;;;5050345;28;20037;-80
2022/03/15 02:03:14;;;;;;;16.13;5.55;;;3.40;99.90;;;;;;5049938;28;20045;-81
2022/03/15 02:05:39;;;;;;;10.77;5.75;;;3.40;99.90;;;;;;5049896;28;20055;-80
2022/03/15 02:08:14;;;;;;;14.77;6.05;;;3.40;99.90;;;;;;5066908;28;20044;-80
2022/03/15 02:10:40;;;;;;;16.98;6.18;;;3.30;99.90;;;;;;5067808;28;20082;-81
2022/03/15 02:13:07;;;;;;;8.07;5.50;;;3.30;99.90;;;;;;5068111;28;20567;-80
2022/03/15 02:15:33;;;;;;;15.10;6.65;;;3.30;99.90;;;;;;5066574;28;20076;-81
2022/03/15 02:17:59;;;;;;;27.10;6.72;;;3.30;99.90;;;;;;5067894;28;20488;-80
2022/03/15 02:20:26;;;;;;;16.33;7.57;;;3.30;99.90;;;;;;5068121;28;20059;-81
2022/03/15 02:22:52;;;;;;;15.98;5.93;;;3.40;99.90;;;;;;5050071;28;20043;-80
2022/03/15 02:25:17;;;;;;;25.42;7.32;;;3.40;99.90;;;;;;5049754;28;20433;-80
2022/03/15 02:27:43;;;;;;;34.55;9.88;;;3.40;99.90;;;;;;5066067;28;20107;-80
2022/03/15 02:30:12;;;;;;;28.67;9.02;;;4.60;99.90;;;;;;5066254;28;20081;-80
2022/03/15 02:32:42;;;;;;;26.50;10.27;;;4.30;99.90;;;;;;5049914;28;20428;-80
2022/03/15 02:35:09;;;;;;;19.33;8.20;;;3.60;99.90;;;;;;5066232;28;20415;-81
2022/03/15 02:37:34;;;;;;;21.48;9.05;;;3.70;99.90;;;;;;5066164;28;20099;-81
2022/03/15 02:40:00;;;;;;;30.90;9.38;;;3.70;99.90;;;;;;5067270;28;20122;-81
2022/03/15 02:42:26;;;;;;;21.77;9.73;;;3.70;99.90;;;;;;5064929;28;20052;-80
2022/03/15 02:44:52;;;;;;;21.25;10.05;;;3.80;99.90;;;;;;5066083;28;20048;-80
2022/03/15 02:47:18;;;;;;;23.20;9.15;;;3.80;99.90;;;;;;5067636;28;20052;-80
2022/03/15 02:49:44;;;;;;;20.38;9.30;;;3.80;99.90;;;;;;5049261;28;20040;-80
2022/03/15 02:52:10;;;;;;;21.83;9.63;;;3.80;99.90;;;;;;5032982;28;20048;-80
2022/03/15 02:54:41;;;;;;;20.95;9.23;;;3.90;99.90;;;;;;5033087;28;20090;-81
2022/03/15 02:57:10;;;;;;;17.08;8.75;;;4.00;99.90;;;;;;5065542;28;20045;-80
2022/03/15 02:59:37;;;;;;;28.13;9.07;;;4.00;99.90;;;;;;5066191;28;20087;-80
2022/03/15 03:02:04;;;;;;;17.08;9.25;;;4.00;99.90;;;;;;5065620;28;20412;-80
2022/03/15 03:04:30;;;;;;;28.67;10.18;;;4.60;99.90;;;;;;5067516;28;20045;-80
2022/03/15 03:06:55;;;;;;;18.85;9.25;;;4.10;99.90;;;;;;5067305;28;20036;-80
2022/03/15 03:09:21;;;;;;;25.85;10.13;;;4.20;99.90;;;;;;5065686;28;20080;-80
2022/03/15 03:11:47;;;;;;;21.38;10.25;;;4.20;99.90;;;;;;5032774;28;20044;-80
2022/03/15 03:14:13;;;;;;;24.15;9.73;;;4.30;99.90;;;;;;5048372;28;20107;-80
2022/03/15 03:16:40;;;;;;;21.85;8.82;;;4.80;99.90;;;;;;5048912;28;20086;-80
2022/03/15 03:19:08;;;;;;;27.05;10.25;;;4.30;99.90;;;;;;5048314;28;20084;-80
2022/03/15 03:21:36;;;;;;;25.00;10.07;;;4.30;99.90;;;;;;5066735;28;20492;-80
2022/03/15 03:24:06;;;;;;;26.52;10.68;;;4.50;99.90;;;;;;5066777;28;20041;-80
2022/03/15 03:26:36;;;;;;;17.63;9.63;;;4.50;99.90;;;;;;5065537;28;20063;-80
2022/03/15 03:29:02;;;;;;;26.52;10.50;;;4.60;99.90;;;;;;5065497;28;20079;-80
2022/03/15 03:31:30;;;;;;;24.15;10.02;;;4.60;99.90;;;;;;5065013;28;20083;-80
2022/03/15 03:33:55;;;;;;;30.77;9.70;;;4.70;99.90;;;;;;5066745;28;20119;-79
2022/03/15 03:36:22;;;;;;;25.17;9.68;;;4.80;99.90;;;;;;5066201;28;20124;-80
2022/03/15 03:38:48;;;;;;;23.00;10.32;;;4.90;99.90;;;;;;5065221;28;20052;-80
2022/03/15 03:41:14;;;;;;;22.85;9.23;;;5.00;99.90;;;;;;5049564;28;20089;-80
2022/03/15 03:43:40;;;;;;;25.05;9.40;;;5.20;99.90;;;;;;5055919;28;20052;-80
2022/03/15 03:46:05;;;;;;;20.90;8.50;;;5.10;99.90;;;;;;5068255;28;20044;-79
2022/03/15 03:48:32;;;;;;;20.38;8.75;;;5.10;99.90;;;;;;5047568;28;20067;-79
2022/03/15 03:50:58;;;;;;;20.83;8.98;;;6.40;99.90;;;;;;5048283;28;20507;-79
2022/03/15 03:53:24;;;;;;;18.63;9.00;;;5.10;99.90;;;;;;5064503;28;20403;-79
2022/03/15 03:55:50;;;;;;;23.48;8.48;;;5.10;99.90;;;;;;5048152;28;20048;-79
2022/03/15 03:58:16;;;;;;;16.98;7.80;;;5.20;99.90;;;;;;5048106;28;20139;-79
2022/03/15 04:00:42;;;;;;;18.35;8.80;;;5.20;99.90;;;;;;5048040;28;20040;-79
2022/03/15 04:03:08;;;;;;;27.67;8.30;;;5.20;99.90;;;;;;5066265;28;20040;-80
2022/03/15 04:05:38;;;;;;;18.33;7.80;;;5.20;99.90;;;;;;5047747;28;20083;-80
2022/03/15 04:08:04;;;;;;;21.05;8.32;;;5.80;99.90;;;;;;5048000;28;20080;-80
2022/03/15 04:10:31;;;;;;;15.80;8.18;;;5.20;99.90;;;;;;5065597;28;20088;-81
2022/03/15 04:12:56;;;;;;;17.02;8.60;;;5.20;99.90;;;;;;5065982;28;20487;-80
2022/03/15 04:15:23;;;;;;;19.75;8.18;;;6.00;99.90;;;;;;5065237;28;20040;-80
2022/03/15 04:17:52;;;;;;;15.70;7.53;;;5.20;99.90;;;;;;5064553;28;20094;-80
2022/03/15 04:20:19;;;;;;;20.08;8.32;;;5.20;99.90;;;;;;5064567;28;20055;-80
2022/03/15 04:22:45;;;;;;;24.15;8.25;;;5.20;99.90;;;;;;5047807;28;20412;-80
2022/03/15 04:25:11;;;;;;;19.77;8.13;;;5.80;99.90;;;;;;5065987;28;20696;-79
2022/03/15 04:27:37;;;;;;;17.35;7.93;;;5.20;99.90;;;;;;5063915;28;20048;-80
2022/03/15 04:30:05;;;;;;;19.83;8.35;;;5.30;99.90;;;;;;5031737;28;20043;-80
2022/03/15 04:32:31;;;;;;;18.23;8.50;;;5.30;99.90;;;;;;5064587;28;20083;-80
2022/03/15 04:34:56;;;;;;;16.20;7.40;;;5.30;99.90;;;;;;5047783;28;20076;-80
2022/03/15 04:37:23;;;;;;;22.55;8.23;;;5.30;99.90;;;;;;5048234;28;20545;-80
2022/03/15 04:39:50;;;;;;;19.38;8.85;;;5.30;99.90;;;;;;5031251;28;20416;-79
2022/03/15 04:42:16;;;;;;;17.38;7.85;;;5.30;99.90;;;;;;5065836;28;20075;-78
2022/03/15 04:44:42;;;;;;;20.85;8.32;;;6.60;99.90;;;;;;5065443;28;20060;-79
2022/03/15 04:47:08;;;;;;;23.48;8.98;;;5.40;99.90;;;;;;5064660;28;20045;-79
2022/03/15 04:49:34;;;;;;;19.33;8.27;;;5.40;99.90;;;;;;5064321;28;20183;-78
2022/03/15 04:52:02;;;;;;;22.90;8.18;;;5.50;99.90;;;;;;5064550;28;20045;-80
2022/03/15 04:54:28;;;;;;;17.35;8.48;;;5.50;99.90;;;;;;5064569;28;20044;-80
2022/03/15 04:56:54;;;;;;;23.77;8.63;;;5.50;99.90;;;;;;5063657;28;20043;-80
2022/03/15 04:59:20;;;;;;;18.95;8.65;;;5.60;99.90;;;;;;5064298;28;20040;-80
2022/03/15 05:01:46;;;;;;;14.90;7.65;;;5.60;99.90;;;;;;5064050;28;20040;-80
2022/03/15 05:04:12;;;;;;;22.55;7.97;;;5.60;99.90;;;;;;5031040;28;20036;-80
2022/03/15 05:06:41;;;;;;;19.50;8.52;;;5.60;99.90;;;;;;5067615;28;20044;-80
2022/03/15 05:09:06;;;;;;;17.23;7.50;;;5.60;99.90;;;;;;5069432;28;20048;-80
2022/03/15 05:11:34;;;;;;;21.55;8.27;;;6.20;99.90;;;;;;5067881;28;20044;-79
2022/03/15 05:13:59;;;;;;;16.90;8.18;;;5.60;99.90;;;;;;5067406;28;20044;-79
2022/03/15 05:16:25;;;;;;;12.98;7.80;;;5.60;99.90;;;;;;5068088;28;20098;-78
2022/03/15 05:18:54;;;;;;;17.27;7.38;;;6.40;99.90;;;;;;5050456;28;20059;-79
2022/03/15 05:21:23;;;;;;;17.92;8.05;;;5.70;99.90;;;;;;5067905;28;20044;-79
2022/03/15 05:23:49;;;;;;;15.13;7.32;;;5.70;99.90;;;;;;5069168;28;20552;-79
2022/03/15 05:26:16;;;;;;;19.00;7.57;;;5.70;99.90;;;;;;5067821;28;20068;-79
2022/03/15 05:28:42;;;;;;;19.75;8.35;;;5.70;99.90;;;;;;5067874;28;20369;-80
2022/03/15 05:31:09;;;;;;;18.67;7.82;;;5.70;99.90;;;;;;5067069;28;20052;-80
2022/03/15 05:33:35;;;;;;;16.02;7.72;;;5.70;99.90;;;;;;5050722;28;20119;-79
2022/03/15 05:36:01;;;;;;;19.70;9.07;;;5.70;99.90;;;;;;5066635;28;20045;-79
2022/03/15 05:38:27;;;;;;;22.63;8.48;;;5.70;99.90;;;;;;5034464;28;20051;-81
2022/03/15 05:40:52;;;;;;;24.05;8.55;;;5.70;99.90;;;;;;5050918;28;20037;-79
2022/03/15 05:43:19;;;;;;;23.15;9.60;;;5.70;99.90;;;;;;5067477;28;20040;-79
2022/03/15 05:45:45;;;;;;;18.23;8.77;;;5.70;99.90;;;;;;5067417;28;20518;-79
2022/03/15 05:48:11;;;;;;;15.15;8.68;;;5.80;99.90;;;;;;5049864;28;20519;-80
2022/03/15 05:50:37;;;;;;;22.52;9.65;;;5.80;99.90;;;;;;5068391;28;20422;-80
2022/03/15 05:53:06;;;;;;;22.83;8.48;;;5.80;99.90;;;;;;5067030;28;20048;-79
2022/03/15 05:55:32;;;;;;;23.55;8.73;;;7.00;99.90;;;;;;5068804;28;20087;-80
2022/03/15 05:57:59;;;;;;;25.58;9.45;;;5.80;99.90;;;;;;5067540;28;20048;-80
2022/03/15 06:00:26;;;;;;;22.60;9.38;;;5.80;99.90;;;;;;5067198;28;20040;-81
2022/03/15 06:02:52;;;;;;;24.23;9.00;;;5.80;99.90;;;;;;5066751;28;20048;-79
2022/03/15 06:05:18;;;;;;;16.83;8.10;;;5.80;99.90;;;;;;5050374;28;20075;-80
2022/03/15 06:07:52;;;;;;;20.38;10.02;;;5.80;99.90;;;;;;5050889;28;20048;-78
2022/03/15 06:10:23;;;;;;;24.63;9.18;;;5.80;99.90;;;;;;5067471;28;20056;-79
2022/03/15 06:12:50;;;;;;;19.73;11.15;;;5.90;99.90;;;;;;5068480;28;20040;-79
2022/03/15 06:15:17;;;;;;;21.67;10.00;;;5.80;99.90;;;;;;5068282;28;20052;-78
2022/03/15 06:17:48;;;;;;;18.55;11.18;;;5.80;99.90;;;;;;5067131;28;20061;-79
2022/03/15 06:20:16;;;;;;;27.08;10.80;;;5.80;99.90;;;;;;5068038;28;20059;-80
2022/03/15 06:22:42;;;;;;;22.83;9.93;;;5.80;99.90;;;;;;5065839;28;20045;-79
2022/03/15 06:25:09;;;;;;;23.63;10.32;;;5.80;99.90;;;;;;5066535;28;20052;-79
2022/03/15 06:27:34;;;;;;;25.90;11.40;;;5.80;99.90;;;;;;5066714;28;20066;-79
2022/03/15 06:30:00;;;;;;;27.42;11.93;;;5.80;99.90;;;;;;5066346;28;20115;-79
2022/03/15 06:32:26;;;;;;;18.20;11.23;;;5.80;99.90;;;;;;5067024;28;20048;-79
2022/03/15 06:34:52;;;;;;;24.30;12.32;;;5.80;99.90;;;;;;5049505;28;20043;-79
2022/03/15 06:37:17;;;;;;;29.23;13.25;;;5.90;99.90;;;;;;5049679;28;20068;-79
2022/03/15 06:39:44;;;;;;;26.98;13.50;;;5.90;99.90;;;;;;5032237;28;20491;-79
2022/03/15 06:42:11;;;;;;;29.88;12.77;;;5.90;99.90;;;;;;5066193;28;20055;-79
2022/03/15 06:44:40;;;;;;;27.90;13.60;;;6.80;99.90;;;;;;5049736;28;20115;-79
2022/03/15 06:47:06;;;;;;;26.60;12.85;;;5.90;99.90;;;;;;5066389;28;20036;-79
2022/03/15 06:49:31;;;;;;;27.63;13.10;;;5.90;99.90;;;;;;5066548;28;20657;-79
2022/03/15 06:51:57;;;;;;;28.75;13.32;;;6.10;99.90;;;;;;5066768;28;20048;-80
2022/03/15 06:54:24;;;;;;;23.92;12.40;;;7.20;99.90;;;;;;5049299;28;20094;-80
2022/03/15 06:56:50;;;;;;;25.30;11.95;;;6.10;99.90;;;;;;5065109;28;20061;-79
2022/03/15 06:59:16;;;;;;;28.27;12.88;;;6.10;99.90;;;;;;5049269;28;20258;-80
2022/03/15 07:01:41;;;;;;;31.55;13.57;;;6.10;99.90;;;;;;5048646;28;20052;-79
2022/03/15 07:04:08;;;;;;;25.25;12.77;;;6.20;99.90;;;;;;5066025;28;20084;-78
2022/03/15 07:06:34;;;;;;;28.45;13.52;;;6.20;99.90;;;;;;5067606;28;20040;-79
2022/03/15 07:09:00;;;;;;;27.92;13.35;;;7.30;99.90;;;;;;5048720;28;20036;-79
2022/03/15 07:11:26;;;;;;;24.23;14.15;;;6.30;99.90;;;;;;5049338;28;20553;-79
2022/03/15 07:13:51;;;;;;;29.33;14.52;;;6.40;99.90;;;;;;5064922;28;20083;-80
2022/03/15 07:16:17;;;;;;;41.05;16.60;;;6.90;99.90;;;;;;5065948;28;20521;-79
2022/03/15 07:18:43;;;;;;;28.58;15.68;;;6.40;99.90;;;;;;5048277;28;20056;-79
2022/03/15 07:21:08;;;;;;;29.63;14.75;;;6.50;99.90;;;;;;5065459;28;20052;-79
2022/03/15 07:23:34;;;;;;;34.35;15.10;;;6.50;99.90;;;;;;5066160;28;20045;-80
2022/03/15 07:26:00;;;;;;;28.48;14.82;;;6.60;99.90;;;;;;5048366;28;20032;-79
2022/03/15 07:28:25;;;;;;;34.28;14.40;;;6.60;99.90;;;;;;5048593;28;20087;-80
2022/03/15 07:30:51;;;;;;;28.25;14.75;;;6.60;99.90;;;;;;5064821;28;20044;-80
2022/03/15 07:33:17;;;;;;;29.20;13.98;;;6.60;99.90;;;;;;5065429;28;20072;-80
2022/03/15 07:35:43;;;;;;;24.33;12.75;;;6.60;99.90;;;;;;5065222;28;20048;-80
2022/03/15 07:38:09;;;;;;;27.98;11.95;;;6.70;99.90;;;;;;5065161;28;20541;-79
2022/03/15 07:40:34;;;;;;;25.08;12.15;;;6.70;99.90;;;;;;5048976;28;20040;-80
2022/03/15 07:43:00;;;;;;;30.65;12.02;;;6.70;99.90;;;;;;5047949;28;20041;-80
2022/03/15 07:45:26;;;;;;;21.35;12.48;;;6.80;99.90;;;;;;5031894;28;20044;-80
2022/03/15 07:47:52;;;;;;;30.25;13.57;;;6.80;99.90;;;;;;5047658;28;20428;-79
2022/03/15 07:50:18;;;;;;;23.90;12.65;;;6.90;99.90;;;;;;5064837;28;20053;-79
2022/03/15 07:52:44;;;;;;;28.60;12.82;;;7.90;99.90;;;;;;5064810;28;20067;-80
2022/03/15 07:55:10;;;;;;;27.55;11.95;;;6.90;99.90;;;;;;5048094;28;20051;-80
2022/03/15 07:57:36;;;;;;;25.45;10.95;;;6.90;99.90;;;;;;5066513;28;20053;-79
2022/03/15 08:00:03;;;;;;;24.58;11.35;;;6.90;99.90;;;;;;5066109;28;20047;-79
2022/03/15 08:02:28;;;;;;;20.80;10.80;;;6.90;99.90;;;;;;5066415;28;20102;-80
2022/03/15 08:04:55;;;;;;;26.25;11.35;;;6.90;99.90;;;;;;5063957;28;20044;-79
2022/03/15 08:07:22;;;;;;;26.70;11.43;;;7.00;99.90;;;;;;5048307;28;20141;-80
2022/03/15 08:09:48;;;;;;;23.33;11.27;;;7.00;99.90;;;;;;5031049;28;20158;-80
2022/03/15 08:12:14;;;;;;;33.30;12.88;;;7.00;99.90;;;;;;5066319;28;20072;-79
2022/03/15 08:14:39;;;;;;;22.17;12.10;;;7.10;99.90;;;;;;5031585;28;20499;-79
2022/03/15 08:17:05;;;;;;;29.17;13.13;;;7.10;99.90;;;;;;5064725;28;20044;-80
2022/03/15 08:19:31;;;;;;;34.00;14.60;;;7.70;99.90;;;;;;5065998;28;20051;-79
2022/03/15 08:22:01;;;;;;;35.50;15.45;;;7.20;99.90;;;;;;5047773;28;20087;-79
2022/03/15 08:24:27;;;;;;;27.13;14.57;;;7.30;99.90;;;;;;5066403;28;20098;-80
2022/03/15 08:26:53;;;;;;;28.45;13.63;;;7.30;99.90;;;;;;5065758;28;20051;-79
2022/03/15 08:29:18;;;;;;;32.10;13.90;;;7.30;99.90;;;;;;5064688;28;20048;-79
2022/03/15 08:31:44;;;;;;;29.67;15.13;;;7.30;99.90;;;;;;5064916;28;20037;-79
2022/03/15 08:34:10;;;;;;;28.48;14.30;;;7.30;99.90;;;;;;5047807;28;20049;-79
2022/03/15 08:36:36;;;;;;;26.95;14.88;;;8.10;99.90;;;;;;5067156;28;20074;-79
2022/03/15 08:39:03;;;;;;;28.00;15.07;;;7.40;99.90;;;;;;5064841;28;20037;-79
2022/03/15 08:41:29;;;;;;;29.25;16.25;;;7.50;99.90;;;;;;5070951;28;20411;-80
2022/03/15 08:43:55;;;;;;;28.00;15.05;;;7.50;99.90;;;;;;5052129;28;20071;-79
2022/03/15 08:46:20;;;;;;;29.10;14.88;;;7.60;99.90;;;;;;5068576;28;20056;-79
2022/03/15 08:48:46;;;;;;;28.20;14.43;;;7.60;99.90;;;;;;5069113;28;20123;-79
2022/03/15 08:51:12;;;;;;;27.10;15.05;;;7.60;99.90;;;;;;5051508;28;20135;-79
2022/03/15 08:53:38;;;;;;;31.88;16.23;;;7.70;99.90;;;;;;5051969;28;20091;-78
2022/03/15 08:56:05;;;;;;;30.60;14.68;;;7.70;99.90;;;;;;5068196;28;20040;-79
2022/03/15 08:58:31;;;;;;;39.13;17.13;;;7.80;99.90;;;;;;5036063;28;20090;-79
2022/03/15 09:00:58;;;;;;;28.63;14.93;;;7.80;99.90;;;;;;5068741;28;20037;-78
2022/03/15 09:03:24;;;;;;;25.17;15.50;;;8.40;99.90;;;;;;5035864;28;20134;-78
2022/03/15 09:05:50;;;;;;;28.80;16.02;;;7.90;99.90;;;;;;5051774;28;20084;-78
2022/03/15 09:08:16;;;;;;;28.50;14.98;;;9.10;99.90;;;;;;5068547;28;20044;-79
2022/03/15 09:10:44;;;;;;;34.20;16.17;;;8.80;99.90;;;;;;5069482;28;20040;-78
2022/03/15 09:13:10;;;;;;;34.10;16.15;;;8.40;99.90;;;;;;5068558;28;20048;-78
2022/03/15 09:15:37;;;;;;;29.10;15.68;;;8.00;99.90;;;;;;5035735;28;20468;-78
2022/03/15 09:18:03;;;;;;;30.50;16.60;;;8.00;99.90;;;;;;5067874;28;20559;-79
2022/03/15 09:20:29;;;;;;;32.50;17.02;;;8.10;99.90;;;;;;5069045;28;20470;-79
2022/03/15 09:22:56;;;;;;;32.70;15.75;;;8.10;99.90;;;;;;5068603;28;20037;-79
2022/03/15 09:25:22;;;;;;;32.28;17.45;;;8.20;99.90;;;;;;5051658;28;20067;-78
2022/03/15 09:27:49;;;;;;;27.55;15.75;;;8.20;99.90;;;;;;5068879;28;20052;-78
2022/03/15 09:30:16;;;;;;;31.92;16.48;;;8.30;99.90;;;;;;5051477;28;20044;-79
2022/03/15 09:32:42;;;;;;;25.33;15.85;;;8.40;99.90;;;;;;5068631;28;20480;-79
2022/03/15 09:35:09;;;;;;;28.85;16.92;;;8.50;99.90;;;;;;5034474;28;20048;-78
2022/03/15 09:37:35;;;;;;;31.95;16.88;;;8.50;99.90;;;;;;5069933;28;20044;-78
2022/03/15 09:40:06;;;;;;;26.45;15.52;;;8.60;99.90;;;;;;5068600;28;20477;-79
2022/03/15 09:42:33;;;;;;;27.73;15.88;;;8.70;99.90;;;;;;5068511;28;20055;-79
2022/03/15 09:45:00;;;;;;;26.33;15.18;;;8.70;99.90;;;;;;5036316;28;20059;-79
2022/03/15 09:47:31;;;;;;;30.25;15.05;;;8.70;99.90;;;;;;5052100;28;20044;-78
2022/03/15 09:49:59;;;;;;;28.60;16.55;;;8.80;99.90;;;;;;5070055;28;20048;-79
2022/03/15 09:52:28;;;;;;;31.63;16.30;;;8.80;99.90;;;;;;5067248;28;20040;-78
2022/03/15 09:54:54;;;;;;;28.27;15.68;;;8.90;99.90;;;;;;5069960;28;20076;-78
2022/03/15 09:57:21;;;;;;;25.08;14.63;;;8.80;99.90;;;;;;5068452;28;20059;-79
2022/03/15 09:59:50;;;;;;;27.52;15.20;;;8.90;99.90;;;;;;5067840;28;20105;-78
2022/03/15 10:02:17;;;;;;;30.00;14.35;;;9.00;99.90;;;;;;5068711;28;20045;-78
2022/03/15 10:04:43;;;;;;;31.60;15.30;;;9.00;99.90;;;;;;5067852;28;20059;-79
2022/03/15 10:07:10;;;;;;;26.17;15.20;;;9.10;99.90;;;;;;5051670;28;20052;-79
2022/03/15 10:09:37;;;;;;;31.42;14.45;;;9.30;99.90;;;;;;5051100;28;20052;-78
2022/03/15 10:12:03;;;;;;;31.27;14.40;;;9.30;99.90;;;;;;5069166;28;20120;-79
2022/03/15 10:14:41;;;;;;;25.02;15.18;;;9.50;99.90;;;;;;5067294;28;20048;-79
2022/03/15 10:17:07;;;;;;;26.27;14.50;;;9.80;99.90;;;;;;5068314;28;20080;-79
2022/03/15 10:19:32;;;;;;;27.45;13.50;;;9.80;99.90;;;;;;5067485;28;20080;-79
2022/03/15 10:21:58;;;;;;;30.05;14.52;;;10.20;99.90;;;;;;5065857;28;20052;-79
2022/03/15 10:24:27;;;;;;;23.45;14.07;;;9.80;99.90;;;;;;5049826;28;20045;-79
2022/03/15 10:27:01;;;;;;;22.65;13.88;;;9.80;99.90;;;;;;5067253;28;20072;-79
2022/03/15 10:29:29;;;;;;;22.48;12.95;;;9.80;99.90;;;;;;5049773;28;20098;-79
2022/03/15 10:31:55;;;;;;;27.45;13.98;;;11.00;99.90;;;;;;5050781;28;20052;-79
2022/03/15 10:34:22;;;;;;;23.50;14.38;;;9.90;99.90;;;;;;5067246;28;20396;-79
2022/03/15 10:36:51;;;;;;;23.33;13.43;;;9.90;99.90;;;;;;5050422;28;20036;-79
2022/03/15 10:39:19;;;;;;;26.80;14.60;;;9.90;99.90;;;;;;5049122;28;20913;-79
2022/03/15 10:42:00;;;;;;;25.55;13.65;;;10.00;99.90;;;;;;5066342;28;20047;-79
2022/03/15 10:44:27;;;;;;;24.88;13.02;;;10.00;99.90;;;;;;5049976;28;20123;-79
2022/03/15 10:47:06;;;;;;;26.23;13.65;;;10.00;99.90;;;;;;5065584;28;20040;-79
2022/03/15 10:49:54;;;;;;;25.63;13.88;;;10.00;99.90;;;;;;5049923;28;20191;-79
2022/03/15 10:52:37;;;;;;;21.13;13.18;;;10.10;99.90;;;;;;5049458;28;20129;-79
2022/03/15 10:55:28;;;;;;;18.65;10.20;;;10.10;99.90;;;;;;5065705;28;20040;-79
2022/03/15 10:57:58;;;;;;;21.23;14.32;;;10.10;99.90;;;;;;5066048;28;20048;-79
2022/03/15 11:00:38;;;;;;;23.48;14.55;;;10.10;99.90;;;;;;5065045;28;20055;-79
2022/03/15 11:03:10;;;;;;;22.90;13.60;;;11.00;99.90;;;;;;5048897;28;20552;-79
2022/03/15 11:05:41;;;;;;;26.63;14.60;;;10.20;99.90;;;;;;5067351;28;20055;-79
2022/03/15 11:08:12;;;;;;;25.52;13.18;;;10.20;99.90;;;;;;5066883;28;20070;-79
2022/03/15 11:10:39;;;;;;;17.40;13.27;;;10.30;99.90;;;;;;5067260;28;20492;-79
2022/03/15 11:13:13;;;;;;;22.83;13.45;;;10.30;99.90;;;;;;5064881;28;20040;-79
2022/03/15 11:15:47;;;;;;;28.23;13.27;;;10.80;99.90;;;;;;5066876;28;20602;-79
2022/03/15 11:18:13;;;;;;;30.80;14.95;;;10.40;99.90;;;;;;5064997;28;20122;-79
2022/03/15 11:20:42;;;;;;;28.35;13.70;;;10.40;99.90;;;;;;5064989;28;20088;-79
2022/03/15 11:23:11;;;;;;;18.52;13.10;;;10.40;99.90;;;;;;5065847;28;20124;-79
2022/03/15 11:25:48;;;;;;;28.13;13.00;;;10.40;99.90;;;;;;5064430;28;20056;-79
2022/03/15 11:28:20;;;;;;;19.58;11.27;;;10.40;99.90;;;;;;5048565;28;20518;-79
2022/03/15 11:30:49;;;;;;;21.17;9.98;;;10.40;99.90;;;;;;5065106;28;20128;-79
2022/03/15 11:33:16;;;;;;;18.35;9.30;;;10.40;99.90;;;;;;5064977;28;20518;-79
2022/03/15 11:35:42;;;;;;;16.63;9.57;;;10.60;99.90;;;;;;5065480;28;20473;-79
2022/03/15 11:38:10;;;;;;;17.38;10.05;;;10.50;99.90;;;;;;5048059;28;20078;-78
2022/03/15 11:40:36;;;;;;;17.17;10.00;;;10.40;99.90;;;;;;5049180;28;20041;-80
2022/03/15 11:43:09;;;;;;;21.85;9.93;;;10.40;99.90;;;;;;5065895;28;20051;-81
2022/03/15 11:45:39;;;;;;;;;;;11.10;99.90;;;;;;5065770;28;20405;-80
2022/03/15 11:48:11;;;;;;;19.88;9.90;;;10.40;99.90;;;;;;5031393;28;20066;-81
2022/03/15 11:51:08;;;;;;;19.25;9.15;;;10.40;99.90;;;;;;5066278;28;20063;-80
2022/03/15 11:53:49;;;;;;;22.27;10.00;;;10.50;99.90;;;;;;5066414;28;20066;-80
2022/03/15 11:56:33;;;;;;;19.55;9.30;;;10.50;99.90;;;;;;5047746;28;20622;-81
2022/03/15 11:59:00;;;;;;;19.30;9.98;;;10.50;99.90;;;;;;5064632;28;20166;-80
2022/03/15 12:01:28;;;;;;;19.25;9.73;;;10.50;99.90;;;;;;5048805;28;20090;-80
2022/03/15 12:03:59;;;;;;;16.63;8.82;;;10.60;99.90;;;;;;5047564;28;20052;-80
2022/03/15 12:06:30;;;;;;;14.70;8.50;;;10.50;99.90;;;;;;5031690;28;20538;-80
2022/03/15 12:09:10;;;;;;;13.98;8.30;;;10.50;99.90;;;;;;5047753;28;20470;-80
2022/03/15 12:11:42;;;;;;;19.58;8.65;;;10.40;99.90;;;;;;5066347;28;20044;-80
2022/03/15 12:14:37;;;;;;;16.17;8.63;;;10.50;99.90;;;;;;5064892;28;20079;-80
2022/03/15 12:17:04;;;;;;;16.52;8.88;;;10.40;99.90;;;;;;5047251;28;20044;-80
2022/03/15 12:19:36;;;;;;;21.00;8.25;;;10.30;99.90;;;;;;5047723;28;20482;-80
2022/03/15 12:22:09;;;;;;;14.95;7.97;;;10.40;99.90;;;;;;5047089;28;20064;-80
2022/03/15 12:24:43;;;;;;;16.30;8.10;;;10.30;99.90;;;;;;5047782;28;20045;-80
2022/03/15 12:27:20;;;;;;;14.27;8.23;;;10.20;99.90;;;;;;5066618;28;20076;-80
2022/03/15 12:29:54;;;;;;;17.75;8.15;;;10.20;99.90;;;;;;5065167;28;20047;-80
2022/03/15 12:32:20;;;;;;;14.57;7.20;;;10.20;99.90;;;;;;5064281;28;20044;-80
2022/03/15 12:34:50;;;;;;;12.70;7.35;;;10.50;99.90;;;;;;5063991;28;20062;-80
2022/03/15 12:37:27;;;;;;;14.98;5.93;;;10.30;99.90;;;;;;5063962;28;20052;-80
2022/03/15 12:39:54;;;;;;;13.57;6.88;;;10.30;99.90;;;;;;5064561;28;20344;-80
2022/03/15 12:42:22;;;;;;;14.02;6.28;;;10.70;99.90;;;;;;5063536;28;20048;-80